Terminal Aerodrome Forecast
Issued by NWS

Home | Current Version | Previous Version | Text Only | Print | Product List | Glossary On
Versions: 1 2 3 4 5 6 7 8 9 10 11 12 13 14 15 16 17 18 19 20 21 22 23 24 25 26 27 28 29 30 31 32 33 34 35 36 37 38 39 40 41 42 43
000
FTAK31 PANC 180301 AAA
TAFADU
TAF AMD
PADU 180301Z 1803/1824 02023G33KT 6SM -SHRASN SCT015 OVC030
      TEMPO 1803/1806 BKN015
     FM181200 35025G35KT 4SM -RASN BR OVC015=

USA.gov is the U.S. government's official web portal to all federal, state and local government web resources and services.